KTBR/TBR METAR and TAF weather

Enter ICAO airport designator
Station Type Date Time Source
KTBR METAR 2021/03/06 04:35 UTC NOAA

KTBR 060435Z AUTO 11003KT 10SM CLR 11/05 A3010 RMK AO2 T01050048


Station Type Date Time Source
KTBR Decoded METAR 2021/03/06 04:35 UTC NOAA

Statesboro, Statesboro-Bulloch County Airport, GA, United States (KTBR) 32-28-59N 081-44-14W
Mar 05, 2021 - 11:35 PM EST / 2021.03.06 0435 UTC
Wind: from the ESE (110 degrees) at 3 MPH (3 KT):0
Visibility: 10 mile(s):0
Sky conditions: clear
Temperature: 50.9 F (10.5 C)
Dew Point: 40.6 F (4.8 C)
Relative Humidity: 67%
Pressure (altimeter): 30.1 in. Hg (1019 hPa)
ob: KTBR 060435Z AUTO 11003KT 10SM CLR 11/05 A3010 RMK AO2 T01050048
cycle: 4

Station Type Date Time Source
KTBR TAF UTC NOAA

Error!

Example: see airport list